Main page
METAR-TAF:

METAR-TAF

Airports :

Killarney, Ireland

Kerry Airport

latitude: 52-10-51N, longitude: 9-31-26W, elevation: 34 m

Current weather observation

The report was made 49 minutes ago, at 17:00 UTC
Wind 12 kt from the West/Southwest
Temperature 12°C
Humidity 54%
Pressure 1014 hPa
Visibility 10 km or more
Scattered clouds at a height of 4200 ft

METAR: EIKY 281700Z 24012KT 9999 SCT042 12/03 Q1014

Time: 18:49 (17:49 UTC)

Forecast

The report was made 49 minutes ago, at 17:00 UTC
Forecast valid from 28 at 18 UTC to 28 at 21 UTC
Wind 11 kt from the West/Southwest
Visibility 10 km or more
Scattered clouds at a height of 2500 ft
Broken clouds at a height of 4000 ft
Becoming
from 28 at 18 UTC to 28 at 21 UTC
Wind 9 kt from the South/Southwest

TAF: EIKY 281700Z 2818/2821 24011KT 9999 SCT025 BKN040 BECMG 2818/2821 20009KT

Weather observations and forecasts of more than 4000 airports (METAR and TAF reports).

The available stations are represented by yellow and red dots on the map.

Hover mouse over dot to see the name of the station.

Then click to see weather observations and forecasts.

To change the map : click on the green buttons with a black cross to zoom in, on the green button with a dash to zoom out, or on the green arrows for adjacent maps.


METAR-TAF: